This is the latest recevied weather packets stored in our database for station/object F8BJE-13. If no packets are shown the sender has not sent any weather packets the latest 10 day(s).
| Time | Temp. | Humidity | Pressure | Rain* | Wind** | Luminosity | Snow |
|---|---|---|---|---|---|---|---|
| 1777816656 | 17.22° C | 48% | 1015.9 hPa | 0 mm | - | - | - |
| 1777814857 | 16.67° C | 44% | 1016.2 hPa | 0 mm | - | - | - |
| 1777813057 | 16.67° C | 46% | 1016.1 hPa | 0 mm | - | - | - |
| 1777811257 | 16.67° C | 46% | 1016.2 hPa | 0 mm | - | - | - |
| 1777809457 | 17.22° C | 43% | 1016.2 hPa | 0 mm | - | - | - |
| 1777807655 | 17.78° C | 41% | 1015.9 hPa | 0 mm | - | - | - |
| 1777805856 | 18.33° C | 40% | 1015.9 hPa | 0 mm | - | - | - |
| 1777804056 | 18.33° C | 40% | 1015.9 hPa | 0 mm | - | - | - |
| 1777802257 | 18.89° C | 40% | 1016 hPa | 0 mm | - | - | - |
| 1777800456 | 16.67° C | 41% | 1015.7 hPa | 0 mm | - | - | - |
| 1777798656 | 17.78° C | 41% | 1015.8 hPa | 0 mm | - | - | - |
| 1777796855 | 16.67° C | 42% | 1015.8 hPa | 0 mm | - | - | - |
| 1777795055 | 17.78° C | 41% | 1015.7 hPa | 0 mm | - | - | - |
| 1777793257 | 16.11° C | 44% | 1015.5 hPa | 0 mm | - | - | - |
| 1777791456 | 14.44° C | 51% | 1015.5 hPa | 0 mm | - | - | - |
| 1777789657 | 13.89° C | 51% | 1015.5 hPa | 0 mm | - | - | - |
| 1777787855 | 13.89° C | 51% | 1015.6 hPa | 0 mm | - | - | - |
| 1777786055 | 13.33° C | 51% | 1015.5 hPa | 0 mm | - | - | - |
| 1777784255 | 13.33° C | 50% | 1015.4 hPa | 0 mm | - | - | - |
| 1777782456 | 13.33° C | 49% | 1015.5 hPa | 0 mm | - | - | - |
| 1777780656 | 13.33° C | 48% | 1015.6 hPa | 0 mm | - | - | - |
| 1777778855 | 13.33° C | 48% | 1015.7 hPa | 0 mm | - | - | - |
| 1777777056 | 13.33° C | 48% | 1015.6 hPa | 0 mm | - | - | - |
| 1777775255 | 13.33° C | 50% | 1015.7 hPa | 0 mm | - | - | - |
| 1777773455 | 13.33° C | 49% | 1016 hPa | 0 mm | - | - | - |
* Rain latest hour (hover to see other rain measurements)
** Current wind speed in m/s (hover to see current wind gust speed)